sensor_id;sensor_type;location;lat;lon;timestamp;pressure;altitude;pressure_sealevel;temperature;humidity
46506;BME280;32220;49.808;9.968;2024-03-02T00:00:52;97756.97;;;7.75;81.62
46506;BME280;32220;49.808;9.968;2024-03-02T00:03:19;97748.41;;;7.71;81.82
46506;BME280;32220;49.808;9.968;2024-03-02T00:05:50;97742.00;;;7.75;82.02
46506;BME280;32220;49.808;9.968;2024-03-02T00:08:22;97753.03;;;7.80;81.97
46506;BME280;32220;49.808;9.968;2024-03-02T00:10:51;97746.81;;;7.81;82.03
46506;BME280;32220;49.808;9.968;2024-03-02T00:13:20;97742.41;;;7.82;83.09
46506;BME280;32220;49.808;9.968;2024-03-02T00:15:53;97747.69;;;7.82;82.68
46506;BME280;32220;49.808;9.968;2024-03-02T00:18:27;97740.22;;;7.76;83.05
46506;BME280;32220;49.808;9.968;2024-03-02T00:20:58;97744.28;;;7.80;83.23
46506;BME280;32220;49.808;9.968;2024-03-02T00:23:27;97707.00;;;7.61;83.12
46506;BME280;32220;49.808;9.968;2024-03-02T00:25:57;97736.53;;;7.78;83.03
46506;BME280;32220;49.808;9.968;2024-03-02T00:28:27;97735.03;;;7.74;83.92
46506;BME280;32220;49.808;9.968;2024-03-02T00:30:59;97700.03;;;7.47;84.30
46506;BME280;32220;49.808;9.968;2024-03-02T00:33:32;97744.53;;;7.77;84.33
46506;BME280;32220;49.808;9.968;2024-03-02T00:35:59;97731.03;;;7.69;84.28
46506;BME280;32220;49.808;9.968;2024-03-02T00:38:28;97754.13;;;7.78;84.04
46506;BME280;32220;49.808;9.968;2024-03-02T00:40:58;97756.75;;;7.78;83.86
46506;BME280;32220;49.808;9.968;2024-03-02T00:43:42;97755.91;;;7.77;84.06
46506;BME280;32220;49.808;9.968;2024-03-02T00:46:12;97764.53;;;7.79;83.35
46506;BME280;32220;49.808;9.968;2024-03-02T00:48:51;97771.50;;;7.80;83.75
46506;BME280;32220;49.808;9.968;2024-03-02T00:51:20;97765.38;;;7.80;83.09
46506;BME280;32220;49.808;9.968;2024-03-02T00:53:49;97765.63;;;7.77;83.47
46506;BME280;32220;49.808;9.968;2024-03-02T00:56:17;97772.03;;;7.73;83.44
46506;BME280;32220;49.808;9.968;2024-03-02T00:58:44;97769.59;;;7.70;84.26
46506;BME280;32220;49.808;9.968;2024-03-02T01:01:13;97761.19;;;7.65;84.36
46506;BME280;32220;49.808;9.968;2024-03-02T01:03:42;97767.59;;;7.61;84.44
46506;BME280;32220;49.808;9.968;2024-03-02T01:06:09;97762.00;;;7.52;84.97
46506;BME280;32220;49.808;9.968;2024-03-02T01:08:37;97774.84;;;7.57;85.30
46506;BME280;32220;49.808;9.968;2024-03-02T01:11:05;97767.06;;;7.55;85.42
46506;BME280;32220;49.808;9.968;2024-03-02T01:13:33;97763.56;;;7.55;85.54
46506;BME280;32220;49.808;9.968;2024-03-02T01:16:00;97774.00;;;7.56;85.42
46506;BME280;32220;49.808;9.968;2024-03-02T01:18:31;97774.97;;;7.55;85.24
46506;BME280;32220;49.808;9.968;2024-03-02T01:20:59;97761.56;;;7.46;84.63
46506;BME280;32220;49.808;9.968;2024-03-02T01:23:27;97761.28;;;7.50;84.40
46506;BME280;32220;49.808;9.968;2024-03-02T01:25:55;97747.34;;;7.48;85.52
46506;BME280;32220;49.808;9.968;2024-03-02T01:28:22;97765.59;;;7.51;85.65
46506;BME280;32220;49.808;9.968;2024-03-02T01:30:50;97768.22;;;7.51;85.29
46506;BME280;32220;49.808;9.968;2024-03-02T01:33:18;97775.28;;;7.51;84.86
46506;BME280;32220;49.808;9.968;2024-03-02T01:35:48;97776.13;;;7.51;84.63
46506;BME280;32220;49.808;9.968;2024-03-02T01:38:15;97772.75;;;7.49;84.88
46506;BME280;32220;49.808;9.968;2024-03-02T01:40:43;97783.28;;;7.49;84.69
46506;BME280;32220;49.808;9.968;2024-03-02T01:43:11;97753.34;;;7.38;84.19
46506;BME280;32220;49.808;9.968;2024-03-02T01:45:39;97772.00;;;7.47;84.46
46506;BME280;32220;49.808;9.968;2024-03-02T01:48:07;97775.59;;;7.46;85.15
46506;BME280;32220;49.808;9.968;2024-03-02T01:50:35;97766.00;;;7.45;85.04
46506;BME280;32220;49.808;9.968;2024-03-02T01:53:04;97772.00;;;7.47;85.44
46506;BME280;32220;49.808;9.968;2024-03-02T01:55:32;97763.16;;;7.48;85.44
46506;BME280;32220;49.808;9.968;2024-03-02T01:58:01;97770.00;;;7.51;85.63
46506;BME280;32220;49.808;9.968;2024-03-02T02:00:28;97751.88;;;7.46;85.34
46506;BME280;32220;49.808;9.968;2024-03-02T02:02:56;97767.06;;;7.55;85.72
46506;BME280;32220;49.808;9.968;2024-03-02T02:05:23;97759.91;;;7.57;85.47
46506;BME280;32220;49.808;9.968;2024-03-02T02:07:51;97766.66;;;7.62;85.27
46506;BME280;32220;49.808;9.968;2024-03-02T02:10:20;97756.84;;;7.64;85.23
46506;BME280;32220;49.808;9.968;2024-03-02T02:12:47;97751.59;;;7.64;85.26
46506;BME280;32220;49.808;9.968;2024-03-02T02:15:22;97748.94;;;7.64;85.41
46506;BME280;32220;49.808;9.968;2024-03-02T02:17:50;97741.06;;;7.64;86.03
46506;BME280;32220;49.808;9.968;2024-03-02T02:20:17;97728.47;;;7.54;85.88
46506;BME280;32220;49.808;9.968;2024-03-02T02:22:59;97735.78;;;7.64;86.01
46506;BME280;32220;49.808;9.968;2024-03-02T02:25:27;97739.38;;;7.63;85.47
46506;BME280;32220;49.808;9.968;2024-03-02T02:27:55;97742.84;;;7.63;85.74
46506;BME280;32220;49.808;9.968;2024-03-02T02:30:24;97733.16;;;7.64;85.12
46506;BME280;32220;49.808;9.968;2024-03-02T02:32:52;97738.41;;;7.64;85.00
46506;BME280;32220;49.808;9.968;2024-03-02T02:35:20;97740.31;;;7.62;85.32
46506;BME280;32220;49.808;9.968;2024-03-02T02:37:48;97741.34;;;7.59;85.24
46506;BME280;32220;49.808;9.968;2024-03-02T02:40:18;97740.72;;;7.55;84.89
46506;BME280;32220;49.808;9.968;2024-03-02T02:42:46;97738.31;;;7.52;85.00
46506;BME280;32220;49.808;9.968;2024-03-02T02:45:13;97741.13;;;7.49;84.78
46506;BME280;32220;49.808;9.968;2024-03-02T02:47:41;97735.13;;;7.47;85.27
46506;BME280;32220;49.808;9.968;2024-03-02T02:50:09;97728.81;;;7.37;85.25
46506;BME280;32220;49.808;9.968;2024-03-02T02:52:39;97732.94;;;7.41;85.43
46506;BME280;32220;49.808;9.968;2024-03-02T02:55:08;97730.78;;;7.34;85.61
46506;BME280;32220;49.808;9.968;2024-03-02T02:57:39;97738.50;;;7.37;85.91
46506;BME280;32220;49.808;9.968;2024-03-02T03:00:09;97721.94;;;7.22;85.60
46506;BME280;32220;49.808;9.968;2024-03-02T03:02:40;97740.69;;;7.30;85.97
46506;BME280;32220;49.808;9.968;2024-03-02T03:05:09;97720.44;;;7.18;86.31
46506;BME280;32220;49.808;9.968;2024-03-02T03:07:38;97728.69;;;7.26;86.92
46506;BME280;32220;49.808;9.968;2024-03-02T03:10:07;97711.28;;;7.11;87.76
46506;BME280;32220;49.808;9.968;2024-03-02T03:12:35;97729.81;;;7.22;87.54
46506;BME280;32220;49.808;9.968;2024-03-02T03:15:05;97730.78;;;7.21;87.24
46506;BME280;32220;49.808;9.968;2024-03-02T03:17:34;97731.81;;;7.18;87.65
46506;BME280;32220;49.808;9.968;2024-03-02T03:20:04;97715.78;;;7.09;87.28
46506;BME280;32220;49.808;9.968;2024-03-02T03:22:35;97712.63;;;7.04;87.43
46506;BME280;32220;49.808;9.968;2024-03-02T03:25:03;97735.81;;;7.11;87.35
46506;BME280;32220;49.808;9.968;2024-03-02T03:27:31;97731.59;;;7.09;87.10
46506;BME280;32220;49.808;9.968;2024-03-02T03:29:58;97732.63;;;7.06;87.05
46506;BME280;32220;49.808;9.968;2024-03-02T03:32:27;97735.59;;;7.02;87.06
46506;BME280;32220;49.808;9.968;2024-03-02T03:34:55;97739.34;;;6.98;86.82
46506;BME280;32220;49.808;9.968;2024-03-02T03:37:22;97745.75;;;6.94;87.14
46506;BME280;32220;49.808;9.968;2024-03-02T03:39:51;97741.66;;;6.90;87.23
46506;BME280;32220;49.808;9.968;2024-03-02T03:42:19;97736.59;;;6.87;87.19
46506;BME280;32220;49.808;9.968;2024-03-02T03:44:46;97737.72;;;6.82;87.16
46506;BME280;32220;49.808;9.968;2024-03-02T03:47:14;97730.03;;;6.79;87.93
46506;BME280;32220;49.808;9.968;2024-03-02T03:49:43;97710.00;;;6.64;87.90
46506;BME280;32220;49.808;9.968;2024-03-02T03:52:10;97726.00;;;6.74;88.06
46506;BME280;32220;49.808;9.968;2024-03-02T03:54:38;97727.06;;;6.71;88.48
46506;BME280;32220;49.808;9.968;2024-03-02T03:57:05;97726.41;;;6.68;88.06
46506;BME280;32220;49.808;9.968;2024-03-02T03:59:33;97735.25;;;6.67;88.17
46506;BME280;32220;49.808;9.968;2024-03-02T04:02:00;97733.75;;;6.63;88.12
46506;BME280;32220;49.808;9.968;2024-03-02T04:04:28;97723.00;;;6.53;88.17
46506;BME280;32220;49.808;9.968;2024-03-02T04:06:57;97739.53;;;6.55;88.42
46506;BME280;32220;49.808;9.968;2024-03-02T04:09:25;97747.69;;;6.51;88.26
46506;BME280;32220;49.808;9.968;2024-03-02T04:11:53;97740.94;;;6.46;88.44
46506;BME280;32220;49.808;9.968;2024-03-02T04:14:20;97738.72;;;6.40;88.33
46506;BME280;32220;49.808;9.968;2024-03-02T04:16:48;97732.97;;;6.34;88.30
46506;BME280;32220;49.808;9.968;2024-03-02T04:19:15;97708.25;;;6.09;88.70
46506;BME280;32220;49.808;9.968;2024-03-02T04:21:43;97745.59;;;6.29;88.55
46506;BME280;32220;49.808;9.968;2024-03-02T04:24:12;97747.66;;;6.24;88.31
46506;BME280;32220;49.808;9.968;2024-03-02T07:48:07;97819.41;;;7.08;100.00
46506;BME280;32220;49.808;9.968;2024-03-02T07:50:34;97804.06;;;7.67;100.00
46506;BME280;32220;49.808;9.968;2024-03-02T07:53:03;97830.78;;;8.51;100.00
46506;BME280;32220;49.808;9.968;2024-03-02T07:55:31;97829.25;;;9.09;100.00
46506;BME280;32220;49.808;9.968;2024-03-02T07:57:59;97815.00;;;9.46;100.00
46506;BME280;32220;49.808;9.968;2024-03-02T08:00:27;97846.53;;;9.95;98.95
46506;BME280;32220;49.808;9.968;2024-03-02T08:02:55;97849.63;;;10.35;96.64
46506;BME280;32220;49.808;9.968;2024-03-02T08:05:24;97848.66;;;10.81;94.14
46506;BME280;32220;49.808;9.968;2024-03-02T08:07:53;97832.13;;;11.11;89.71
46506;BME280;32220;49.808;9.968;2024-03-02T08:10:20;97840.25;;;11.62;88.09
46506;BME280;32220;49.808;9.968;2024-03-02T08:12:48;97840.56;;;12.01;86.56
46506;BME280;32220;49.808;9.968;2024-03-02T08:15:15;97851.41;;;12.39;83.54
46506;BME280;32220;49.808;9.968;2024-03-02T08:17:44;97851.56;;;12.68;81.08
46506;BME280;32220;49.808;9.968;2024-03-02T08:20:15;97849.31;;;13.04;79.58
46506;BME280;32220;49.808;9.968;2024-03-02T08:22:44;97858.81;;;13.46;78.39
46506;BME280;32220;49.808;9.968;2024-03-02T08:25:13;97871.97;;;13.86;74.22
46506;BME280;32220;49.808;9.968;2024-03-02T08:27:42;97874.88;;;14.22;72.23
46506;BME280;32220;49.808;9.968;2024-03-02T08:30:11;97873.31;;;14.38;69.94
46506;BME280;32220;49.808;9.968;2024-03-02T08:32:39;97873.47;;;14.56;69.34
46506;BME280;32220;49.808;9.968;2024-03-02T08:35:06;97878.63;;;14.67;67.30
46506;BME280;32220;49.808;9.968;2024-03-02T08:37:34;97879.47;;;14.68;66.85
46506;BME280;32220;49.808;9.968;2024-03-02T08:40:04;97881.28;;;14.67;65.22
46506;BME280;32220;49.808;9.968;2024-03-02T08:42:33;97892.63;;;14.69;64.15
46506;BME280;32220;49.808;9.968;2024-03-02T08:45:01;97881.78;;;14.81;65.56
46506;BME280;32220;49.808;9.968;2024-03-02T08:47:28;97884.97;;;14.94;64.03
46506;BME280;32220;49.808;9.968;2024-03-02T08:49:56;97834.41;;;14.74;63.63
46506;BME280;32220;49.808;9.968;2024-03-02T08:52:23;97859.09;;;15.04;62.32
46506;BME280;32220;49.808;9.968;2024-03-02T08:54:51;97874.56;;;15.28;61.75
46506;BME280;32220;49.808;9.968;2024-03-02T08:57:20;97879.28;;;15.61;61.95
46506;BME280;32220;49.808;9.968;2024-03-02T08:59:47;97883.47;;;15.99;60.14
46506;BME280;32220;49.808;9.968;2024-03-02T09:02:15;97895.81;;;16.36;57.93
46506;BME280;32220;49.808;9.968;2024-03-02T09:04:42;97884.94;;;16.55;57.09
46506;BME280;32220;49.808;9.968;2024-03-02T09:07:10;97896.69;;;16.88;57.11
46506;BME280;32220;49.808;9.968;2024-03-02T09:09:37;97904.66;;;17.06;55.31
46506;BME280;32220;49.808;9.968;2024-03-02T09:12:06;97904.41;;;17.33;54.82
46506;BME280;32220;49.808;9.968;2024-03-02T09:14:35;97913.09;;;17.69;53.98
46506;BME280;32220;49.808;9.968;2024-03-02T09:17:04;97919.38;;;18.18;52.35
46506;BME280;32220;49.808;9.968;2024-03-02T09:19:31;97913.38;;;18.41;51.66
46506;BME280;32220;49.808;9.968;2024-03-02T09:21:59;97931.78;;;18.68;51.52
46506;BME280;32220;49.808;9.968;2024-03-02T09:24:29;97933.47;;;18.69;50.98
46506;BME280;32220;49.808;9.968;2024-03-02T09:26:56;97936.81;;;18.71;49.42
46506;BME280;32220;49.808;9.968;2024-03-02T09:29:24;97933.47;;;18.69;49.78
46506;BME280;32220;49.808;9.968;2024-03-02T09:31:53;97935.16;;;18.54;49.39
46506;BME280;32220;49.808;9.968;2024-03-02T09:34:20;97935.78;;;18.31;49.56
46506;BME280;32220;49.808;9.968;2024-03-02T09:36:48;97929.25;;;18.18;50.72
46506;BME280;32220;49.808;9.968;2024-03-02T09:39:17;97920.69;;;18.06;50.55
46506;BME280;32220;49.808;9.968;2024-03-02T09:41:45;97931.03;;;17.93;50.05
46506;BME280;32220;49.808;9.968;2024-03-02T09:44:12;97926.88;;;17.90;50.44
46506;BME280;32220;49.808;9.968;2024-03-02T09:46:40;97919.00;;;17.89;50.06
46506;BME280;32220;49.808;9.968;2024-03-02T09:49:12;97910.28;;;17.95;50.46
46506;BME280;32220;49.808;9.968;2024-03-02T09:51:40;97917.69;;;18.01;50.06
46506;BME280;32220;49.808;9.968;2024-03-02T09:54:07;97917.16;;;17.98;49.71
46506;BME280;32220;49.808;9.968;2024-03-02T09:56:35;97919.16;;;17.95;50.46
46506;BME280;32220;49.808;9.968;2024-03-02T09:59:02;97924.56;;;18.04;49.80
46506;BME280;32220;49.808;9.968;2024-03-02T10:01:31;97917.53;;;18.19;50.28
46506;BME280;32220;49.808;9.968;2024-03-02T10:03:59;97927.09;;;18.46;49.75
46506;BME280;32220;49.808;9.968;2024-03-02T10:06:28;97924.53;;;18.93;48.73
46506;BME280;32220;49.808;9.968;2024-03-02T10:08:56;97924.88;;;19.45;47.66
46506;BME280;32220;49.808;9.968;2024-03-02T10:11:28;97937.50;;;20.37;46.13
46506;BME280;32220;49.808;9.968;2024-03-02T10:14:07;97929.75;;;21.68;44.35
46506;BME280;32220;49.808;9.968;2024-03-02T10:16:36;97954.44;;;23.42;42.19
46506;BME280;32220;49.808;9.968;2024-03-02T10:19:17;97977.41;;;25.27;39.46
46506;BME280;32220;49.808;9.968;2024-03-02T10:21:46;97986.81;;;26.47;35.77
46506;BME280;32220;49.808;9.968;2024-03-02T10:24:15;97991.63;;;28.60;32.81
46506;BME280;32220;49.808;9.968;2024-03-02T10:26:43;97978.88;;;30.81;30.51
46506;BME280;32220;49.808;9.968;2024-03-02T10:29:11;97994.41;;;32.68;27.60
46506;BME280;32220;49.808;9.968;2024-03-02T10:31:39;97996.22;;;33.11;26.65
46506;BME280;32220;49.808;9.968;2024-03-02T10:34:07;97985.19;;;33.38;26.37
46506;BME280;32220;49.808;9.968;2024-03-02T10:36:35;97999.94;;;33.27;25.11
46506;BME280;32220;49.808;9.968;2024-03-02T10:39:05;97984.25;;;32.64;25.92
46506;BME280;32220;49.808;9.968;2024-03-02T10:41:34;97984.97;;;32.32;26.00
46506;BME280;32220;49.808;9.968;2024-03-02T10:44:02;97978.53;;;32.00;25.76
46506;BME280;32220;49.808;9.968;2024-03-02T10:46:30;97968.25;;;31.68;27.07
46506;BME280;32220;49.808;9.968;2024-03-02T10:48:59;97961.19;;;31.72;26.43
46506;BME280;32220;49.808;9.968;2024-03-02T10:51:27;97972.66;;;31.69;26.43
46506;BME280;32220;49.808;9.968;2024-03-02T10:53:58;97977.31;;;31.02;26.36
46506;BME280;32220;49.808;9.968;2024-03-02T10:56:30;97959.28;;;30.27;26.66
46506;BME280;32220;49.808;9.968;2024-03-02T10:59:02;97950.34;;;30.32;27.12
46506;BME280;32220;49.808;9.968;2024-03-02T11:01:32;97929.22;;;29.99;27.27
46506;BME280;32220;49.808;9.968;2024-03-02T11:04:01;97943.22;;;29.91;27.97
46506;BME280;32220;49.808;9.968;2024-03-02T11:06:30;97949.25;;;29.41;27.62
46506;BME280;32220;49.808;9.968;2024-03-02T11:09:00;97936.16;;;28.97;28.26
46506;BME280;32220;49.808;9.968;2024-03-02T11:11:38;97940.56;;;28.56;28.56
46506;BME280;32220;49.808;9.968;2024-03-02T11:14:14;97942.09;;;28.22;28.32
46506;BME280;32220;49.808;9.968;2024-03-02T11:16:43;97934.44;;;27.64;29.14
46506;BME280;32220;49.808;9.968;2024-03-02T11:19:12;97918.03;;;28.19;29.83
46506;BME280;32220;49.808;9.968;2024-03-02T11:21:40;97926.81;;;29.27;28.65
46506;BME280;32220;49.808;9.968;2024-03-02T11:24:31;97925.50;;;29.93;27.40
46506;BME280;32220;49.808;9.968;2024-03-02T11:27:05;97929.41;;;30.99;27.07
46506;BME280;32220;49.808;9.968;2024-03-02T11:29:43;97927.63;;;32.53;25.18
46506;BME280;32220;49.808;9.968;2024-03-02T11:32:16;97933.88;;;33.39;24.19
46506;BME280;32220;49.808;9.968;2024-03-02T11:34:45;97936.00;;;34.41;23.64
46506;BME280;32220;49.808;9.968;2024-03-02T11:37:14;97948.19;;;35.52;22.22
46506;BME280;32220;49.808;9.968;2024-03-02T11:39:44;97934.31;;;35.87;21.53
46506;BME280;32220;49.808;9.968;2024-03-02T11:42:14;97941.00;;;35.51;21.30
46506;BME280;32220;49.808;9.968;2024-03-02T11:44:43;97933.28;;;34.51;22.50
46506;BME280;32220;49.808;9.968;2024-03-02T11:47:13;97914.38;;;33.35;23.82
46506;BME280;32220;49.808;9.968;2024-03-02T11:49:45;97894.06;;;32.99;23.91
46506;BME280;32220;49.808;9.968;2024-03-02T11:52:14;97910.75;;;34.49;23.37
46506;BME280;32220;49.808;9.968;2024-03-02T11:54:44;97919.28;;;36.24;21.19
46506;BME280;32220;49.808;9.968;2024-03-02T11:57:17;97932.78;;;37.43;18.95
46506;BME280;32220;49.808;9.968;2024-03-02T11:59:45;97923.56;;;38.00;18.17
46506;BME280;32220;49.808;9.968;2024-03-02T12:02:15;97911.69;;;38.79;17.95
46506;BME280;32220;49.808;9.968;2024-03-02T12:04:45;97903.41;;;39.85;18.11
46506;BME280;32220;49.808;9.968;2024-03-02T12:07:18;97898.09;;;40.97;17.03
46506;BME280;32220;49.808;9.968;2024-03-02T12:09:46;97910.50;;;41.44;15.54
46506;BME280;32220;49.808;9.968;2024-03-02T12:12:15;97895.81;;;41.52;15.28
46506;BME280;32220;49.808;9.968;2024-03-02T12:14:50;97896.38;;;42.11;15.07
46506;BME280;32220;49.808;9.968;2024-03-02T12:17:18;97871.41;;;42.46;14.71
46506;BME280;32220;49.808;9.968;2024-03-02T12:19:45;97885.50;;;42.41;15.00
46506;BME280;32220;49.808;9.968;2024-03-02T12:22:13;97862.72;;;41.73;16.26
46506;BME280;32220;49.808;9.968;2024-03-02T12:24:44;97876.75;;;41.29;15.35
46506;BME280;32220;49.808;9.968;2024-03-02T12:27:12;97858.91;;;40.99;16.13
46506;BME280;32220;49.808;9.968;2024-03-02T12:29:43;97852.69;;;41.24;16.74
46506;BME280;32220;49.808;9.968;2024-03-02T12:32:10;97858.19;;;41.86;15.05
46506;BME280;32220;49.808;9.968;2024-03-02T12:34:38;97860.84;;;42.08;14.98
46506;BME280;32220;49.808;9.968;2024-03-02T12:37:06;97847.47;;;42.27;15.05
46506;BME280;32220;49.808;9.968;2024-03-02T12:39:33;97833.25;;;42.38;15.05
46506;BME280;32220;49.808;9.968;2024-03-02T12:42:02;97847.97;;;42.55;14.26
46506;BME280;32220;49.808;9.968;2024-03-02T12:44:30;97843.91;;;42.53;14.65
46506;BME280;32220;49.808;9.968;2024-03-02T12:46:59;97842.56;;;42.42;14.71
46506;BME280;32220;49.808;9.968;2024-03-02T12:49:26;97831.41;;;42.24;14.54
46506;BME280;32220;49.808;9.968;2024-03-02T12:51:54;97825.69;;;42.04;14.62
46506;BME280;32220;49.808;9.968;2024-03-02T12:54:23;97831.91;;;42.09;14.75
46506;BME280;32220;49.808;9.968;2024-03-02T12:56:53;97832.88;;;42.13;14.82
46506;BME280;32220;49.808;9.968;2024-03-02T12:59:21;97818.91;;;41.79;14.91
46506;BME280;32220;49.808;9.968;2024-03-02T13:01:52;97818.53;;;41.54;14.94
46506;BME280;32220;49.808;9.968;2024-03-02T13:04:26;97809.94;;;40.36;15.23
46506;BME280;32220;49.808;9.968;2024-03-02T13:06:55;97788.69;;;38.53;16.74
46506;BME280;32220;49.808;9.968;2024-03-02T13:09:24;97786.16;;;38.00;16.89
46506;BME280;32220;49.808;9.968;2024-03-02T13:11:51;97773.44;;;37.99;16.83
46506;BME280;32220;49.808;9.968;2024-03-02T13:14:21;97767.78;;;38.28;17.42
46506;BME280;32220;49.808;9.968;2024-03-02T13:16:51;97749.56;;;38.41;17.33
46506;BME280;32220;49.808;9.968;2024-03-02T13:19:18;97741.69;;;38.16;17.17
46506;BME280;32220;49.808;9.968;2024-03-02T13:21:47;97760.88;;;36.74;18.03
46506;BME280;32220;49.808;9.968;2024-03-02T13:24:16;97754.34;;;35.92;18.70
46506;BME280;32220;49.808;9.968;2024-03-02T13:26:44;97741.56;;;36.45;18.77
46506;BME280;32220;49.808;9.968;2024-03-02T13:29:12;97745.34;;;37.07;18.16
46506;BME280;32220;49.808;9.968;2024-03-02T13:31:39;97740.63;;;37.55;17.73
46506;BME280;32220;49.808;9.968;2024-03-02T13:34:07;97743.94;;;37.76;17.76
46506;BME280;32220;49.808;9.968;2024-03-02T13:36:35;97743.03;;;37.99;17.23
46506;BME280;32220;49.808;9.968;2024-03-02T13:39:04;97744.00;;;38.08;17.54
46506;BME280;32220;49.808;9.968;2024-03-02T13:41:32;97720.03;;;37.85;17.07
46506;BME280;32220;49.808;9.968;2024-03-02T13:43:59;97744.06;;;37.85;17.31
46506;BME280;32220;49.808;9.968;2024-03-02T13:46:27;97742.25;;;37.56;17.86
46506;BME280;32220;49.808;9.968;2024-03-02T13:48:55;97737.78;;;36.94;17.82
46506;BME280;32220;49.808;9.968;2024-03-02T13:51:24;97725.09;;;36.93;18.43
46506;BME280;32220;49.808;9.968;2024-03-02T13:53:53;97720.59;;;36.97;17.89
46506;BME280;32220;49.808;9.968;2024-03-02T13:56:22;97719.88;;;36.33;18.53
46506;BME280;32220;49.808;9.968;2024-03-02T13:58:50;97684.69;;;36.20;19.07
46506;BME280;32220;49.808;9.968;2024-03-02T14:01:17;97706.97;;;36.58;18.55
46506;BME280;32220;49.808;9.968;2024-03-02T14:03:45;97702.72;;;36.65;18.01
46506;BME280;32220;49.808;9.968;2024-03-02T14:06:13;97711.00;;;36.65;18.93
46506;BME280;32220;49.808;9.968;2024-03-02T14:08:40;97694.19;;;36.38;18.46
46506;BME280;32220;49.808;9.968;2024-03-02T14:11:10;97709.13;;;36.32;18.17
46506;BME280;32220;49.808;9.968;2024-03-02T14:13:42;97707.03;;;36.14;18.38
46506;BME280;32220;49.808;9.968;2024-03-02T14:16:15;97712.16;;;35.96;18.94
46506;BME280;32220;49.808;9.968;2024-03-02T14:18:43;97708.69;;;35.81;18.76
46506;BME280;32220;49.808;9.968;2024-03-02T14:21:10;97705.13;;;35.21;18.31
46506;BME280;32220;49.808;9.968;2024-03-02T14:23:38;97713.88;;;34.43;18.89
46506;BME280;32220;49.808;9.968;2024-03-02T14:26:06;97702.19;;;33.30;19.67
46506;BME280;32220;49.808;9.968;2024-03-02T14:28:34;97686.69;;;33.03;19.97
46506;BME280;32220;49.808;9.968;2024-03-02T14:31:03;97687.72;;;32.87;20.02
46506;BME280;32220;49.808;9.968;2024-03-02T14:33:31;97693.53;;;32.54;20.21
46506;BME280;32220;49.808;9.968;2024-03-02T14:35:58;97691.41;;;31.92;20.90
46506;BME280;32220;49.808;9.968;2024-03-02T14:38:26;97686.47;;;31.35;21.69
46506;BME280;32220;49.808;9.968;2024-03-02T14:40:53;97684.50;;;30.48;21.53
46506;BME280;32220;49.808;9.968;2024-03-02T14:43:21;97676.91;;;29.67;22.07
46506;BME280;32220;49.808;9.968;2024-03-02T14:45:48;97644.13;;;29.05;22.59
46506;BME280;32220;49.808;9.968;2024-03-02T14:48:18;97668.13;;;28.68;23.97
46506;BME280;32220;49.808;9.968;2024-03-02T14:50:45;97654.50;;;27.74;25.25
46506;BME280;32220;49.808;9.968;2024-03-02T14:53:13;97657.69;;;27.00;26.04
46506;BME280;32220;49.808;9.968;2024-03-02T14:55:41;97645.13;;;26.32;27.41
46506;BME280;32220;49.808;9.968;2024-03-02T14:58:08;97644.69;;;25.61;28.08
46506;BME280;32220;49.808;9.968;2024-03-02T15:00:36;97634.91;;;24.97;28.88
46506;BME280;32220;49.808;9.968;2024-03-02T15:03:04;97635.88;;;24.51;29.69
46506;BME280;32220;49.808;9.968;2024-03-02T15:05:36;97616.44;;;24.03;30.88
46506;BME280;32220;49.808;9.968;2024-03-02T15:08:04;97609.66;;;23.61;31.73
46506;BME280;32220;49.808;9.968;2024-03-02T15:10:31;97596.91;;;23.28;32.50
46506;BME280;32220;49.808;9.968;2024-03-02T15:12:59;97600.41;;;23.03;32.62
46506;BME280;32220;49.808;9.968;2024-03-02T15:15:27;97594.75;;;22.78;33.33
46506;BME280;32220;49.808;9.968;2024-03-02T15:17:55;97595.84;;;22.42;33.00
46506;BME280;32220;49.808;9.968;2024-03-02T15:20:22;97575.69;;;21.97;33.77
46506;BME280;32220;49.808;9.968;2024-03-02T15:22:52;97580.84;;;21.64;34.73
46506;BME280;32220;49.808;9.968;2024-03-02T15:25:19;97573.34;;;21.25;35.65
46506;BME280;32220;49.808;9.968;2024-03-02T15:27:47;97570.09;;;20.94;36.02
46506;BME280;32220;49.808;9.968;2024-03-02T15:30:14;97558.88;;;20.69;36.68
46506;BME280;32220;49.808;9.968;2024-03-02T15:32:42;97560.91;;;20.46;37.29
46506;BME280;32220;49.808;9.968;2024-03-02T15:35:10;97550.75;;;20.12;38.04
46506;BME280;32220;49.808;9.968;2024-03-02T15:37:37;97551.91;;;19.88;38.67
46506;BME280;32220;49.808;9.968;2024-03-02T15:40:08;97541.44;;;19.63;38.92
46506;BME280;32220;49.808;9.968;2024-03-02T15:42:37;97535.06;;;19.27;40.25
46506;BME280;32220;49.808;9.968;2024-03-02T15:45:05;97535.56;;;19.08;40.45
46506;BME280;32220;49.808;9.968;2024-03-02T15:47:33;97532.22;;;18.91;40.87
46506;BME280;32220;49.808;9.968;2024-03-02T15:50:02;97531.19;;;18.69;41.39
46506;BME280;32220;49.808;9.968;2024-03-02T15:52:30;97532.00;;;18.47;41.74
46506;BME280;32220;49.808;9.968;2024-03-02T15:54:57;97528.38;;;18.31;42.24
46506;BME280;32220;49.808;9.968;2024-03-02T15:57:26;97531.19;;;18.15;42.50
46506;BME280;32220;49.808;9.968;2024-03-02T15:59:54;97536.94;;;18.04;42.80
46506;BME280;32220;49.808;9.968;2024-03-02T16:02:21;97525.28;;;17.89;43.41
46506;BME280;32220;49.808;9.968;2024-03-02T16:04:49;97524.34;;;17.74;44.12
46506;BME280;32220;49.808;9.968;2024-03-02T16:07:17;97522.69;;;17.56;44.61
46506;BME280;32220;49.808;9.968;2024-03-02T16:09:45;97521.06;;;17.39;44.51
46506;BME280;32220;49.808;9.968;2024-03-02T16:12:12;97500.72;;;17.14;44.67
46506;BME280;32220;49.808;9.968;2024-03-02T16:14:42;97510.41;;;17.07;45.31
46506;BME280;32220;49.808;9.968;2024-03-02T16:17:10;97523.47;;;17.02;45.36
46506;BME280;32220;49.808;9.968;2024-03-02T16:19:37;97529.84;;;16.93;45.84
46506;BME280;32220;49.808;9.968;2024-03-02T16:22:06;97533.34;;;16.85;45.66
46506;BME280;32220;49.808;9.968;2024-03-02T16:24:37;97533.50;;;16.75;45.81
46506;BME280;32220;49.808;9.968;2024-03-02T16:27:04;97527.50;;;16.65;46.30
46506;BME280;32220;49.808;9.968;2024-03-02T16:29:32;97515.25;;;16.55;46.62
46506;BME280;32220;49.808;9.968;2024-03-02T16:32:01;97522.41;;;16.46;46.89
46506;BME280;32220;49.808;9.968;2024-03-02T16:34:29;97527.91;;;16.36;47.64